Nikolaevsk, Alaska
Current Conditions -  °F | °C
As of 9:53 PM on Saturday 25 Oct 2014 (Local Time) from PAHO Reporting Station
Few Clouds Few Clouds  
Wind Chill: 33°   Ceiling: Unl
Heat Index: 33°   Visibility: 10mi
Dew Point: 24°   Wind: 0mph
Humidity: 70%   Direction: NA
Pressure: 29.82"   Gusts: NA
Location:  59.8183°N, 151.638°W
Report Text: PAHO 260553Z AUTO 00000KT 10SM FEW120 01/M04 A2982 RMK AO2 SLP099 T00061044 10067 21011 56003 TSNO
Loading
Personal Weather Stations






























Interactive Weather Map New forecast layout! Learn more

10-Day Weather Forecast

Advertisements
Track Severe Weather on mobile